Harris, Arkansas
Current Conditions -  °F | °C
As of 4:53 AM on Saturday 22 Nov 2014 (Local Time) from KFYV Reporting Station
Overcast Overcast  
Wind Chill: 53°   Ceiling: 1900
Heat Index: 53°   Visibility: 10mi
Dew Point: 48°   Wind: 8mph
Humidity: 83%   Direction: 180°S
Pressure: 30.11"   Gusts: NA
Location:  35.9902°N, 94.083°W
Report Text: KFYV 221053Z AUTO 18007KT 10SM OVC019 12/09 A3011 RMK AO2 SLP195 T01170089
Loading
Personal Weather Stations






























Interactive Weather Map New forecast layout! Learn more

10-Day Weather Forecast

Advertisements
Track Severe Weather on mobile